Time;durP1;ratioP1;P1;durP2;ratioP2;P2;SDS_P1;SDS_P2;PMS_P1;PMS_P2;Temp;Humidity;BMP_temperature;BMP_pressure;BME280_temperature;BME280_humidity;BME280_pressure;Samples;Min_cycle;Max_cycle;Signal;HPM_P1;HPM_P2
2021/05/05 00:01:19;;;;;;;41.08;24.75;;;;;;;;;;4938844;28;20039;-57
2021/05/05 00:03:45;;;;;;;20.42;12.63;;;;;;;;;;4914022;29;20090;-61
2021/05/05 00:06:12;;;;;;;56.70;35.30;;;;;;;;;;4941344;29;20023;-62
2021/05/05 00:08:38;;;;;;;29.40;19.05;;;;;;;;;;4947659;28;20035;-55
2021/05/05 00:11:04;;;;;;;46.33;29.02;;;;;;;;;;4947701;28;20023;-53
2021/05/05 00:13:31;;;;;;;70.60;46.10;;;;;;;;;;4948486;28;20031;-54
2021/05/05 00:15:57;;;;;;;23.75;13.27;;;;;;;;;;4947110;28;20059;-52
2021/05/05 00:18:23;;;;;;;28.27;14.95;;;;;;;;;;4948310;28;20031;-54
2021/05/05 00:20:49;;;;;;;19.48;12.07;;;;;;;;;;4947851;28;20027;-55
2021/05/05 00:23:15;;;;;;;58.33;37.13;;;;;;;;;;4947796;28;20409;-55
2021/05/05 00:25:41;;;;;;;31.13;19.85;;;;;;;;;;4947311;28;20027;-51
2021/05/05 00:28:07;;;;;;;36.35;22.75;;;;;;;;;;4947322;28;20068;-59
2021/05/05 00:30:33;;;;;;;30.73;21.40;;;;;;;;;;4947056;28;20027;-60
2021/05/05 00:33:00;;;;;;;22.40;14.85;;;;;;;;;;4947210;28;20545;-52
2021/05/05 00:35:26;;;;;;;35.45;20.80;;;;;;;;;;4947023;28;20039;-57
2021/05/05 00:37:52;;;;;;;36.50;22.73;;;;;;;;;;4947373;28;20019;-50
2021/05/05 00:40:18;;;;;;;40.65;24.42;;;;;;;;;;4940275;28;20043;-57
2021/05/05 00:42:44;;;;;;;20.15;11.23;;;;;;;;;;4947245;28;20073;-51
2021/05/05 00:45:12;;;;;;;17.02;7.10;;;;;;;;;;4946965;28;20030;-59
2021/05/05 00:47:40;;;;;;;13.55;7.65;;;;;;;;;;4946588;28;20018;-54
2021/05/05 00:50:07;;;;;;;12.30;7.70;;;;;;;;;;4946919;28;20031;-55
2021/05/05 00:52:33;;;;;;;13.95;8.23;;;;;;;;;;4946639;28;20027;-55
2021/05/05 00:55:00;;;;;;;9.13;5.80;;;;;;;;;;4946736;28;20031;-54
2021/05/05 00:57:27;;;;;;;9.45;5.45;;;;;;;;;;4946807;28;20434;-56
2021/05/05 00:59:54;;;;;;;11.25;6.28;;;;;;;;;;4947483;28;20027;-56
2021/05/05 01:02:20;;;;;;;10.10;5.68;;;;;;;;;;4946882;28;20035;-54
2021/05/05 01:04:46;;;;;;;12.88;5.70;;;;;;;;;;4946667;28;20135;-56
2021/05/05 01:07:15;;;;;;;17.83;9.43;;;;;;;;;;4946344;28;20518;-50
2021/05/05 01:09:44;;;;;;;16.27;9.95;;;;;;;;;;4946608;28;20027;-49
2021/05/05 01:12:11;;;;;;;12.20;7.57;;;;;;;;;;4947387;28;20034;-50
2021/05/05 01:14:37;;;;;;;14.68;8.23;;;;;;;;;;4947081;28;20520;-51
2021/05/05 01:17:03;;;;;;;18.67;10.25;;;;;;;;;;4947207;28;20033;-52
2021/05/05 01:19:29;;;;;;;17.10;9.63;;;;;;;;;;4946320;28;20062;-50
2021/05/05 01:21:55;;;;;;;20.23;13.15;;;;;;;;;;4946461;28;20031;-53
2021/05/05 01:24:21;;;;;;;19.45;8.52;;;;;;;;;;4946542;28;20460;-56
2021/05/05 01:26:48;;;;;;;21.33;11.20;;;;;;;;;;4946079;28;20242;-55
2021/05/05 01:29:14;;;;;;;19.75;11.10;;;;;;;;;;4946495;28;20055;-56
2021/05/05 01:31:40;;;;;;;16.85;8.20;;;;;;;;;;4946225;28;20035;-52
2021/05/05 01:34:06;;;;;;;17.10;9.52;;;;;;;;;;4945914;28;20098;-56
2021/05/05 01:36:33;;;;;;;23.10;11.55;;;;;;;;;;4945702;28;20395;-55
2021/05/05 01:39:00;;;;;;;15.80;10.00;;;;;;;;;;4945993;28;20418;-51
2021/05/05 01:41:27;;;;;;;24.05;14.68;;;;;;;;;;4947280;28;20411;-53
2021/05/05 01:43:53;;;;;;;22.95;12.20;;;;;;;;;;4945850;28;20046;-55
2021/05/05 01:46:21;;;;;;;18.95;11.77;;;;;;;;;;4945896;28;20434;-53
2021/05/05 01:48:47;;;;;;;15.93;8.05;;;;;;;;;;4994100;28;20042;-53
2021/05/05 01:51:14;;;;;;;13.88;8.65;;;;;;;;;;4994962;28;20474;-57
2021/05/05 01:53:43;;;;;;;21.83;12.50;;;;;;;;;;4995005;28;20486;-51
2021/05/05 01:56:09;;;;;;;9.15;5.07;;;;;;;;;;4995130;28;20158;-57
2021/05/05 01:58:36;;;;;;;13.35;6.50;;;;;;;;;;4995050;28;20084;-51
2021/05/05 02:01:03;;;;;;;9.25;5.63;;;;;;;;;;4994788;28;20037;-53
2021/05/05 02:03:29;;;;;;;10.13;5.95;;;;;;;;;;4994884;28;20126;-56
2021/05/05 02:05:55;;;;;;;12.07;6.35;;;;;;;;;;4994736;28;20517;-56
2021/05/05 02:08:22;;;;;;;10.90;6.50;;;;;;;;;;4994632;28;20046;-49
2021/05/05 02:10:48;;;;;;;10.55;6.63;;;;;;;;;;4994723;28;20117;-56
2021/05/05 02:13:14;;;;;;;10.48;6.28;;;;;;;;;;4994759;28;20382;-54
2021/05/05 02:15:40;;;;;;;11.60;6.38;;;;;;;;;;4994534;28;20034;-54
2021/05/05 02:18:10;;;;;;;15.02;5.65;;;;;;;;;;4994578;28;20026;-57
2021/05/05 02:20:38;;;;;;;9.80;5.93;;;;;;;;;;4994534;28;20100;-52
2021/05/05 02:23:05;;;;;;;13.00;6.30;;;;;;;;;;4994786;28;20018;-57
2021/05/05 02:25:31;;;;;;;12.98;5.30;;;;;;;;;;4993850;28;20505;-58
2021/05/05 02:27:58;;;;;;;9.38;5.53;;;;;;;;;;4994593;28;20045;-55
2021/05/05 02:30:24;;;;;;;10.00;5.00;;;;;;;;;;4994411;28;20109;-50
2021/05/05 02:32:51;;;;;;;9.43;4.70;;;;;;;;;;4994531;28;20050;-55
2021/05/05 02:35:18;;;;;;;7.07;4.65;;;;;;;;;;4994159;28;20086;-57
2021/05/05 02:37:45;;;;;;;8.48;4.50;;;;;;;;;;4994187;28;20470;-51
2021/05/05 02:40:12;;;;;;;11.23;5.05;;;;;;;;;;4994490;28;20034;-51
2021/05/05 02:42:39;;;;;;;7.75;4.35;;;;;;;;;;4994297;28;20113;-50
2021/05/05 02:45:05;;;;;;;6.93;4.60;;;;;;;;;;4994090;28;20022;-53
2021/05/05 02:47:31;;;;;;;13.75;6.35;;;;;;;;;;4994097;28;20030;-52
2021/05/05 02:49:57;;;;;;;13.23;7.50;;;;;;;;;;4994004;28;20030;-52
2021/05/05 02:52:23;;;;;;;8.60;5.13;;;;;;;;;;4994140;28;20025;-53
2021/05/05 02:54:49;;;;;;;6.20;3.92;;;;;;;;;;4994102;28;20030;-52
2021/05/05 02:57:15;;;;;;;9.15;3.33;;;;;;;;;;4994137;28;20413;-50
2021/05/05 02:59:44;;;;;;;6.20;3.30;;;;;;;;;;4994108;28;20026;-53
2021/05/05 03:02:10;;;;;;;8.65;4.13;;;;;;;;;;4993943;28;20033;-50
2021/05/05 03:04:36;;;;;;;6.93;3.50;;;;;;;;;;4994117;28;20028;-51
2021/05/05 03:07:02;;;;;;;9.65;3.70;;;;;;;;;;4993979;28;20592;-52
2021/05/05 03:09:28;;;;;;;7.55;4.03;;;;;;;;;;4994063;28;20109;-54
2021/05/05 03:12:04;;;;;;;12.60;4.20;;;;;;;;;;4993948;28;20506;-54
2021/05/05 03:14:35;;;;;;;9.80;4.47;;;;;;;;;;4993766;28;20554;-54
2021/05/05 03:17:01;;;;;;;7.88;3.50;;;;;;;;;;4993736;28;20034;-53
2021/05/05 03:19:27;;;;;;;5.57;3.63;;;;;;;;;;4993702;28;20076;-53
2021/05/05 03:21:53;;;;;;;10.00;4.72;;;;;;;;;;4993798;28;20049;-54
2021/05/05 03:24:22;;;;;;;6.35;4.15;;;;;;;;;;4993863;28;20022;-52
2021/05/05 03:26:48;;;;;;;11.35;3.92;;;;;;;;;;4993824;28;20352;-53
2021/05/05 03:29:16;;;;;;;12.43;4.85;;;;;;;;;;4993843;28;20058;-52
2021/05/05 03:31:42;;;;;;;9.13;3.80;;;;;;;;;;4993768;28;20026;-53
2021/05/05 03:34:08;;;;;;;10.40;4.40;;;;;;;;;;4993627;28;20026;-57
2021/05/05 03:36:34;;;;;;;4.80;4.20;;;;;;;;;;4994744;28;20034;-57
2021/05/05 03:39:01;;;;;;;10.13;4.60;;;;;;;;;;4997805;28;20026;-57
2021/05/05 03:41:27;;;;;;;5.38;3.50;;;;;;;;;;4997679;28;20034;-56
2021/05/05 03:43:53;;;;;;;6.13;3.60;;;;;;;;;;4997713;28;20029;-56
2021/05/05 03:46:19;;;;;;;8.25;3.72;;;;;;;;;;4997371;28;20057;-53
2021/05/05 03:48:45;;;;;;;11.35;4.38;;;;;;;;;;4997339;28;20092;-50
2021/05/05 03:51:12;;;;;;;7.18;3.88;;;;;;;;;;4979247;28;20031;-54
2021/05/05 03:53:38;;;;;;;6.70;3.83;;;;;;;;;;4997454;28;20416;-51
2021/05/05 03:56:04;;;;;;;5.57;3.72;;;;;;;;;;4997261;28;20038;-50
2021/05/05 03:58:30;;;;;;;9.10;3.90;;;;;;;;;;4997280;28;20019;-51
2021/05/05 04:00:57;;;;;;;5.93;3.92;;;;;;;;;;4997092;28;20030;-54
2021/05/05 04:03:23;;;;;;;7.63;4.30;;;;;;;;;;4997014;28;20029;-53
2021/05/05 04:05:49;;;;;;;5.32;3.78;;;;;;;;;;4997165;28;20029;-57
2021/05/05 04:08:15;;;;;;;10.15;4.03;;;;;;;;;;4996936;28;20462;-49
2021/05/05 04:10:41;;;;;;;10.32;4.28;;;;;;;;;;4979176;28;20453;-51
2021/05/05 04:13:07;;;;;;;10.00;3.78;;;;;;;;;;4997063;28;20014;-50
2021/05/05 04:15:33;;;;;;;6.28;3.85;;;;;;;;;;4996903;28;20368;-54
2021/05/05 04:17:59;;;;;;;7.07;3.88;;;;;;;;;;4996755;28;20030;-54
2021/05/05 04:20:25;;;;;;;7.93;4.38;;;;;;;;;;4996842;28;20034;-54
2021/05/05 04:22:51;;;;;;;10.75;3.92;;;;;;;;;;4996925;28;20092;-52
2021/05/05 04:25:18;;;;;;;7.00;3.92;;;;;;;;;;4996846;28;20035;-55
2021/05/05 04:27:44;;;;;;;9.05;3.95;;;;;;;;;;4996719;28;20375;-51
2021/05/05 04:30:13;;;;;;;5.78;3.53;;;;;;;;;;4996692;28;20023;-53
2021/05/05 04:32:41;;;;;;;6.00;4.03;;;;;;;;;;4996601;28;20035;-56
2021/05/05 04:35:08;;;;;;;9.57;4.25;;;;;;;;;;4996497;28;20035;-55
2021/05/05 04:37:35;;;;;;;7.10;3.92;;;;;;;;;;4996627;28;20026;-54
2021/05/05 04:40:02;;;;;;;9.43;3.78;;;;;;;;;;4996681;28;20030;-51
2021/05/05 04:42:28;;;;;;;5.93;3.50;;;;;;;;;;4996486;28;20030;-50
2021/05/05 04:44:54;;;;;;;7.72;3.78;;;;;;;;;;4996630;28;20105;-55
2021/05/05 04:47:20;;;;;;;8.23;3.85;;;;;;;;;;4995702;28;20030;-53
2021/05/05 04:49:46;;;;;;;6.85;3.72;;;;;;;;;;4996277;28;20031;-50
2021/05/05 04:52:12;;;;;;;11.68;3.90;;;;;;;;;;4996376;28;20030;-50
2021/05/05 04:54:38;;;;;;;8.65;3.42;;;;;;;;;;4996358;28;20034;-52
2021/05/05 04:57:04;;;;;;;7.07;3.40;;;;;;;;;;4996128;28;20034;-55
2021/05/05 04:59:30;;;;;;;4.32;2.85;;;;;;;;;;4996229;28;20169;-53
2021/05/05 05:01:57;;;;;;;7.18;3.30;;;;;;;;;;4996043;28;20034;-55
2021/05/05 05:04:23;;;;;;;8.98;3.53;;;;;;;;;;4996017;28;20105;-55
2021/05/05 05:06:49;;;;;;;8.88;3.55;;;;;;;;;;4995843;28;20045;-56
2021/05/05 05:09:15;;;;;;;3.85;3.00;;;;;;;;;;4995823;28;20033;-51
2021/05/05 05:11:41;;;;;;;5.53;2.95;;;;;;;;;;4996088;28;20483;-52
2021/05/05 05:14:09;;;;;;;5.30;3.65;;;;;;;;;;4996092;28;20026;-56
2021/05/05 05:16:35;;;;;;;11.88;3.75;;;;;;;;;;4995563;28;20034;-52
2021/05/05 05:19:01;;;;;;;6.00;4.35;;;;;;;;;;4995774;28;20031;-54
2021/05/05 05:21:27;;;;;;;4.65;3.42;;;;;;;;;;4995887;28;20463;-52
2021/05/05 05:23:54;;;;;;;7.47;3.03;;;;;;;;;;4995807;28;20023;-52
2021/05/05 05:26:20;;;;;;;8.50;3.45;;;;;;;;;;4995846;28;20026;-56
2021/05/05 05:28:46;;;;;;;8.82;3.08;;;;;;;;;;4995648;28;20030;-54
2021/05/05 05:31:12;;;;;;;6.10;3.17;;;;;;;;;;4995609;28;20030;-54
2021/05/05 05:33:38;;;;;;;14.70;3.97;;;;;;;;;;4995471;28;20030;-53
2021/05/05 05:36:04;;;;;;;9.95;3.33;;;;;;;;;;4995432;28;20077;-51
2021/05/05 05:38:30;;;;;;;5.80;2.75;;;;;;;;;;4995522;28;20507;-52
2021/05/05 05:40:56;;;;;;;4.57;2.85;;;;;;;;;;4995410;28;20026;-54
2021/05/05 05:43:25;;;;;;;7.78;3.15;;;;;;;;;;4995332;28;20029;-52
2021/05/05 05:45:51;;;;;;;7.70;2.97;;;;;;;;;;4995179;28;20093;-57
2021/05/05 05:48:17;;;;;;;6.35;3.22;;;;;;;;;;4995024;28;20108;-53
2021/05/05 05:50:43;;;;;;;2.92;2.10;;;;;;;;;;4995256;28;20073;-56
2021/05/05 05:53:09;;;;;;;7.78;2.55;;;;;;;;;;4995216;28;20382;-54
2021/05/05 05:55:35;;;;;;;11.20;2.35;;;;;;;;;;4995119;28;20038;-56
2021/05/05 05:58:03;;;;;;;7.45;2.72;;;;;;;;;;4995058;28;20110;-53
2021/05/05 06:00:30;;;;;;;7.65;2.40;;;;;;;;;;4994149;28;20038;-52
2021/05/05 06:02:56;;;;;;;9.52;2.45;;;;;;;;;;4994806;28;20359;-54
2021/05/05 06:05:22;;;;;;;6.13;2.42;;;;;;;;;;4994956;28;20027;-53
2021/05/05 06:07:49;;;;;;;7.47;2.20;;;;;;;;;;4994774;28;20537;-56
2021/05/05 06:10:16;;;;;;;7.05;2.33;;;;;;;;;;4994604;28;20050;-57
2021/05/05 06:12:42;;;;;;;8.55;2.35;;;;;;;;;;4994734;28;20045;-52
2021/05/05 06:15:09;;;;;;;7.93;2.22;;;;;;;;;;4994720;28;20033;-54
2021/05/05 06:17:36;;;;;;;9.65;2.33;;;;;;;;;;4994531;28;20475;-56
2021/05/05 06:20:04;;;;;;;7.15;2.40;;;;;;;;;;4994541;28;20034;-52
2021/05/05 06:22:30;;;;;;;9.40;2.10;;;;;;;;;;4994615;28;20022;-54
2021/05/05 06:24:56;;;;;;;5.65;2.30;;;;;;;;;;4994499;28;20577;-54
2021/05/05 06:27:22;;;;;;;6.38;2.40;;;;;;;;;;4994562;28;20105;-55
2021/05/05 06:29:48;;;;;;;9.10;2.38;;;;;;;;;;4994720;28;20068;-50
2021/05/05 06:32:15;;;;;;;6.95;2.45;;;;;;;;;;4994482;28;20173;-57
2021/05/05 06:34:41;;;;;;;8.32;2.42;;;;;;;;;;4994289;28;20026;-57
2021/05/05 06:37:07;;;;;;;4.25;1.92;;;;;;;;;;4994324;28;20026;-53
2021/05/05 06:39:33;;;;;;;9.93;2.40;;;;;;;;;;4994196;28;20037;-50
2021/05/05 06:42:01;;;;;;;5.03;2.20;;;;;;;;;;4994509;28;20037;-55
2021/05/05 06:44:28;;;;;;;5.80;2.50;;;;;;;;;;4994251;28;20513;-54
2021/05/05 06:46:57;;;;;;;4.65;2.40;;;;;;;;;;4993947;28;20118;-57
2021/05/05 06:49:24;;;;;;;7.00;2.42;;;;;;;;;;4993955;28;20042;-53
2021/05/05 06:51:50;;;;;;;6.75;2.25;;;;;;;;;;4994056;28;20459;-55
2021/05/05 06:54:17;;;;;;;7.07;2.08;;;;;;;;;;4994146;28;20088;-53
2021/05/05 06:56:43;;;;;;;6.40;2.50;;;;;;;;;;4994030;28;20126;-55
2021/05/05 06:59:09;;;;;;;5.78;2.25;;;;;;;;;;4994051;28;20027;-55
2021/05/05 07:01:38;;;;;;;3.80;2.00;;;;;;;;;;4993909;28;20018;-55
2021/05/05 07:04:06;;;;;;;5.60;2.03;;;;;;;;;;4994156;28;20076;-52
2021/05/05 07:06:32;;;;;;;5.20;1.80;;;;;;;;;;4994040;28;20410;-55
2021/05/05 07:08:58;;;;;;;10.63;3.70;;;;;;;;;;4993844;28;20395;-55
2021/05/05 07:11:25;;;;;;;13.57;5.82;;;;;;;;;;4993584;28;20027;-54
2021/05/05 07:13:51;;;;;;;36.95;3.65;;;;;;;;;;4993753;28;20035;-51
2021/05/05 07:16:17;;;;;;;8.40;1.63;;;;;;;;;;4993737;28;20030;-57
2021/05/05 07:18:43;;;;;;;10.75;3.85;;;;;;;;;;4993764;28;20394;-56
2021/05/05 07:21:09;;;;;;;6.97;3.08;;;;;;;;;;4993669;28;20035;-57
2021/05/05 07:23:35;;;;;;;26.88;17.15;;;;;;;;;;4993792;28;20470;-51
2021/05/05 07:26:02;;;;;;;23.48;13.02;;;;;;;;;;4993854;28;20054;-50
2021/05/05 07:28:28;;;;;;;6.78;3.40;;;;;;;;;;4993810;28;20066;-50
2021/05/05 07:30:54;;;;;;;94.78;66.22;;;;;;;;;;4993755;28;20034;-50
2021/05/05 07:33:20;;;;;;;32.20;17.02;;;;;;;;;;4993361;28;20023;-51
2021/05/05 07:35:55;;;;;;;17.63;9.30;;;;;;;;;;4993487;28;20092;-53
2021/05/05 07:38:49;;;;;;;24.10;17.83;;;;;;;;;;4993758;28;20022;-55
2021/05/05 07:46:46;;;;;;;31.70;18.13;;;;;;;;;;4993794;28;20049;-58
2021/05/05 07:49:15;;;;;;;21.05;8.38;;;;;;;;;;4993606;28;20494;-56
2021/05/05 07:51:43;;;;;;;4.15;1.42;;;;;;;;;;4993759;28;20098;-57
2021/05/05 07:54:09;;;;;;;8.27;3.20;;;;;;;;;;4993694;28;20504;-62
2021/05/05 07:56:35;;;;;;;14.45;6.72;;;;;;;;;;4993551;28;20478;-59
2021/05/05 07:59:02;;;;;;;16.65;6.90;;;;;;;;;;4993674;28;20471;-59
2021/05/05 08:01:32;;;;;;;9.38;4.15;;;;;;;;;;4993485;28;20069;-57
2021/05/05 08:03:58;;;;;;;25.17;7.60;;;;;;;;;;4993396;28;20018;-57
2021/05/05 08:06:25;;;;;;;6.70;1.92;;;;;;;;;;4993323;28;20033;-58
2021/05/05 08:08:51;;;;;;;3.10;2.03;;;;;;;;;;4993596;28;20030;-60
2021/05/05 08:11:17;;;;;;;9.30;2.42;;;;;;;;;;4993595;28;20023;-59
2021/05/05 08:13:44;;;;;;;11.90;5.55;;;;;;;;;;4993626;28;20125;-59
2021/05/05 08:16:10;;;;;;;9.13;4.00;;;;;;;;;;4993530;28;20153;-59
2021/05/05 08:18:37;;;;;;;7.65;2.10;;;;;;;;;;4993336;28;20049;-58
2021/05/05 08:21:06;;;;;;;13.63;6.55;;;;;;;;;;4993477;28;20083;-58
2021/05/05 08:23:32;;;;;;;5.22;2.78;;;;;;;;;;4995723;28;20113;-57
2021/05/05 08:25:59;;;;;;;7.97;1.80;;;;;;;;;;4996891;28;20061;-58
2021/05/05 08:28:25;;;;;;;8.00;1.15;;;;;;;;;;4979312;28;20211;-56
2021/05/05 08:30:51;;;;;;;10.32;1.85;;;;;;;;;;4997078;28;20027;-58
2021/05/05 08:33:18;;;;;;;42.50;26.75;;;;;;;;;;4996778;28;20050;-57
2021/05/05 08:35:44;;;;;;;11.57;2.70;;;;;;;;;;4996572;28;20045;-57
2021/05/05 08:38:10;;;;;;;9.05;4.38;;;;;;;;;;4996745;28;20100;-57
2021/05/05 08:40:36;;;;;;;5.40;1.92;;;;;;;;;;4996602;28;20105;-57
2021/05/05 08:43:02;;;;;;;5.20;1.45;;;;;;;;;;4996530;28;20026;-57
2021/05/05 08:45:29;;;;;;;4.80;1.38;;;;;;;;;;4996342;28;20069;-59
2021/05/05 08:47:57;;;;;;;4.28;1.52;;;;;;;;;;4996522;28;20125;-59
2021/05/05 08:50:24;;;;;;;5.97;1.50;;;;;;;;;;4996340;28;20054;-57
2021/05/05 08:52:51;;;;;;;8.38;1.42;;;;;;;;;;4996356;28;20073;-57
2021/05/05 08:55:18;;;;;;;7.30;2.33;;;;;;;;;;4996237;28;20042;-55
2021/05/05 08:57:44;;;;;;;5.32;1.55;;;;;;;;;;4996374;28;20030;-55
2021/05/05 09:00:13;;;;;;;12.90;3.00;;;;;;;;;;4996442;28;20080;-57
2021/05/05 09:02:40;;;;;;;8.77;3.08;;;;;;;;;;4996112;28;20062;-55
2021/05/05 09:05:09;;;;;;;14.82;5.97;;;;;;;;;;4995963;28;20018;-54
2021/05/05 09:07:37;;;;;;;13.60;6.70;;;;;;;;;;4995948;28;20485;-55
2021/05/05 09:10:04;;;;;;;12.55;8.27;;;;;;;;;;4995955;28;20056;-55
2021/05/05 09:12:34;;;;;;;7.55;2.90;;;;;;;;;;4996045;28;20029;-56
2021/05/05 09:15:15;;;;;;;17.02;9.60;;;;;;;;;;4996090;28;20038;-56
2021/05/05 09:17:47;;;;;;;8.07;5.25;;;;;;;;;;4995651;28;20023;-56
2021/05/05 09:20:14;;;;;;;17.67;9.57;;;;;;;;;;4995763;28;20038;-55
2021/05/05 09:22:46;;;;;;;9.48;3.55;;;;;;;;;;4995994;28;20026;-56
2021/05/05 09:25:14;;;;;;;4.28;1.55;;;;;;;;;;4995875;28;20435;-56
2021/05/05 09:27:41;;;;;;;3.55;1.98;;;;;;;;;;4995686;28;20395;-56
2021/05/05 09:30:17;;;;;;;8.18;1.60;;;;;;;;;;4995645;28;20177;-57
2021/05/05 09:32:47;;;;;;;6.22;1.40;;;;;;;;;;4995679;28;20044;-56
2021/05/05 09:35:13;;;;;;;4.73;1.80;;;;;;;;;;4995314;28;20034;-56
2021/05/05 09:37:39;;;;;;;8.13;2.03;;;;;;;;;;4995645;28;20275;-52
2021/05/05 09:40:10;;;;;;;4.50;1.30;;;;;;;;;;4995625;28;20356;-49
2021/05/05 09:42:37;;;;;;;4.20;1.27;;;;;;;;;;4995752;28;20026;-49
2021/05/05 09:45:05;;;;;;;1.90;1.00;;;;;;;;;;4995582;28;20025;-52
2021/05/05 09:47:48;;;;;;;2.03;1.13;;;;;;;;;;4995461;28;20034;-52
2021/05/05 09:50:29;;;;;;;6.40;2.08;;;;;;;;;;4995222;28;20026;-55
2021/05/05 09:53:15;;;;;;;6.03;2.15;;;;;;;;;;4995218;28;20077;-54
2021/05/05 09:55:42;;;;;;;4.03;1.85;;;;;;;;;;4995128;28;20042;-53
2021/05/05 09:58:26;;;;;;;5.82;2.00;;;;;;;;;;4995137;28;20034;-54
2021/05/05 10:01:04;;;;;;;33.10;15.65;;;;;;;;;;4995325;28;20026;-54
2021/05/05 10:03:39;;;;;;;5.45;1.67;;;;;;;;;;4995053;28;20387;-54
2021/05/05 10:06:18;;;;;;;7.35;2.17;;;;;;;;;;4995149;28;20493;-53
2021/05/05 10:08:44;;;;;;;6.03;2.17;;;;;;;;;;4995059;28;20491;-55
2021/05/05 10:11:10;;;;;;;3.50;2.17;;;;;;;;;;4994878;28;20387;-54
2021/05/05 10:13:37;;;;;;;6.15;1.83;;;;;;;;;;4994978;28;20081;-56
2021/05/05 10:16:03;;;;;;;15.02;4.32;;;;;;;;;;4994795;28;20034;-56
2021/05/05 10:18:29;;;;;;;7.88;2.17;;;;;;;;;;4994876;28;20040;-55
2021/05/05 10:20:57;;;;;;;8.88;1.42;;;;;;;;;;4994744;28;20050;-53
2021/05/05 10:23:24;;;;;;;4.68;1.50;;;;;;;;;;4995134;28;20026;-53
2021/05/05 10:25:50;;;;;;;5.38;1.70;;;;;;;;;;4994762;28;20030;-55
2021/05/05 10:28:17;;;;;;;5.60;1.30;;;;;;;;;;4994546;28;20382;-54
2021/05/05 10:30:44;;;;;;;6.90;1.40;;;;;;;;;;4994689;28;20390;-56
2021/05/05 10:33:18;;;;;;;7.30;1.60;;;;;;;;;;4994464;28;20054;-54
2021/05/05 10:35:44;;;;;;;4.53;1.58;;;;;;;;;;4994312;28;20077;-55
2021/05/05 10:38:30;;;;;;;3.00;1.05;;;;;;;;;;4994798;28;20483;-55
2021/05/05 10:41:14;;;;;;;3.47;1.38;;;;;;;;;;4994539;28;20034;-55
2021/05/05 10:43:50;;;;;;;8.40;1.90;;;;;;;;;;4994609;28;20387;-55
2021/05/05 10:46:26;;;;;;;3.15;1.67;;;;;;;;;;4993947;28;20121;-55
2021/05/05 10:49:08;;;;;;;4.82;1.63;;;;;;;;;;4994435;28;20454;-55
2021/05/05 10:51:47;;;;;;;5.70;1.23;;;;;;;;;;4994473;28;20040;-57
2021/05/05 10:54:17;;;;;;;4.37;1.33;;;;;;;;;;4994370;28;20030;-54
2021/05/05 10:57:04;;;;;;;7.28;1.17;;;;;;;;;;4994252;28;20517;-54
2021/05/05 10:59:30;;;;;;;4.10;1.20;;;;;;;;;;4994084;28;20510;-54
2021/05/05 11:01:56;;;;;;;3.78;1.20;;;;;;;;;;4994360;28;20030;-54
2021/05/05 11:04:22;;;;;;;2.78;1.35;;;;;;;;;;4994078;28;20026;-55
2021/05/05 11:06:49;;;;;;;3.00;1.10;;;;;;;;;;4993891;28;20465;-54
2021/05/05 11:09:16;;;;;;;2.20;1.23;;;;;;;;;;4994036;28;20552;-64
2021/05/05 11:11:46;;;;;;;33.15;23.58;;;;;;;;;;4986051;28;20027;-57
2021/05/05 11:14:24;;;;;;;76.53;48.80;;;;;;;;;;4974217;28;20026;-53
2021/05/05 11:17:00;;;;;;;38.35;24.80;;;;;;;;;;4974500;28;20368;-56
2021/05/05 11:19:40;;;;;;;39.95;24.35;;;;;;;;;;4974279;28;20113;-58
2021/05/05 11:22:27;;;;;;;6.28;1.90;;;;;;;;;;4974220;28;20109;-57
2021/05/05 11:24:55;;;;;;;4.63;2.33;;;;;;;;;;4964797;28;20046;-55
2021/05/05 11:27:41;;;;;;;8.50;5.05;;;;;;;;;;4974317;28;20019;-57
2021/05/05 11:30:27;;;;;;;24.83;16.52;;;;;;;;;;4914915;29;20124;-57
2021/05/05 11:32:56;;;;;;;203.40;139.88;;;;;;;;;;4914297;29;20071;-55
2021/05/05 11:35:30;;;;;;;10.90;2.90;;;;;;;;;;4914788;29;20044;-56
2021/05/05 11:38:10;;;;;;;20.55;13.27;;;;;;;;;;4914955;29;20103;-55
2021/05/05 11:40:36;;;;;;;13.68;7.30;;;;;;;;;;4914748;29;20043;-57
2021/05/05 11:43:16;;;;;;;8.48;4.38;;;;;;;;;;4915101;29;20108;-59
2021/05/05 11:46:08;;;;;;;14.88;6.88;;;;;;;;;;4914866;29;20033;-58
2021/05/05 11:48:39;;;;;;;10.40;6.75;;;;;;;;;;4911748;29;20051;-60
2021/05/05 11:51:17;;;;;;;8.35;5.05;;;;;;;;;;4914569;29;20112;-57
2021/05/05 11:53:43;;;;;;;3.03;1.80;;;;;;;;;;4914791;29;20547;-58
2021/05/05 11:56:16;;;;;;;5.53;1.35;;;;;;;;;;4914651;29;20044;-57
2021/05/05 11:58:45;;;;;;;18.15;4.32;;;;;;;;;;4917579;29;20035;-57
2021/05/05 12:01:11;;;;;;;4.22;1.60;;;;;;;;;;4918311;29;20063;-56
2021/05/05 12:03:37;;;;;;;3.85;1.25;;;;;;;;;;4918228;29;20024;-57
2021/05/05 12:06:03;;;;;;;8.40;3.88;;;;;;;;;;4919068;28;20106;-54
2021/05/05 12:08:30;;;;;;;5.57;1.80;;;;;;;;;;4977242;28;20121;-58
2021/05/05 12:10:56;;;;;;;6.93;1.65;;;;;;;;;;4977957;28;20042;-57
2021/05/05 12:13:26;;;;;;;4.25;1.55;;;;;;;;;;4977755;28;20019;-59
2021/05/05 12:16:03;;;;;;;3.15;1.50;;;;;;;;;;4977598;28;20035;-58
2021/05/05 12:18:37;;;;;;;4.47;1.70;;;;;;;;;;4960041;28;20506;-58
2021/05/05 12:21:13;;;;;;;3.00;1.73;;;;;;;;;;4977291;28;20042;-54
2021/05/05 12:23:55;;;;;;;11.30;2.47;;;;;;;;;;4977562;28;20038;-59
2021/05/05 12:26:24;;;;;;;12.07;3.88;;;;;;;;;;4977753;28;20023;-58
2021/05/05 12:28:51;;;;;;;5.25;1.92;;;;;;;;;;4977822;28;20035;-60
2021/05/05 12:31:21;;;;;;;8.07;3.65;;;;;;;;;;4977548;28;20037;-59
2021/05/05 12:33:48;;;;;;;16.90;4.07;;;;;;;;;;4977210;28;20034;-59
2021/05/05 12:36:16;;;;;;;4.97;1.00;;;;;;;;;;4977270;28;20043;-58
2021/05/05 12:38:43;;;;;;;10.38;3.97;;;;;;;;;;4977548;28;20052;-60
2021/05/05 12:41:19;;;;;;;11.50;3.20;;;;;;;;;;4977257;28;20026;-59
2021/05/05 12:43:47;;;;;;;3.72;1.30;;;;;;;;;;4977078;28;20027;-60
2021/05/05 12:46:24;;;;;;;6.18;1.33;;;;;;;;;;4977472;28;20070;-63
2021/05/05 12:48:50;;;;;;;6.38;1.58;;;;;;;;;;4977008;28;20035;-57
2021/05/05 12:51:18;;;;;;;2.55;1.65;;;;;;;;;;4976993;28;20475;-57
2021/05/05 12:54:04;;;;;;;3.72;1.30;;;;;;;;;;4977244;28;20472;-58
2021/05/05 12:56:46;;;;;;;16.95;3.47;;;;;;;;;;4976923;28;20031;-60
2021/05/05 12:59:14;;;;;;;5.45;1.92;;;;;;;;;;4976949;28;20043;-63
2021/05/05 13:01:40;;;;;;;6.13;1.90;;;;;;;;;;4959364;28;20439;-61
2021/05/05 13:04:08;;;;;;;11.93;7.40;;;;;;;;;;4976800;28;20034;-60
2021/05/05 13:06:38;;;;;;;24.45;15.90;;;;;;;;;;4976779;28;20039;-60
2021/05/05 13:09:13;;;;;;;17.30;8.80;;;;;;;;;;4976505;28;20093;-62
2021/05/05 13:11:45;;;;;;;12.05;3.13;;;;;;;;;;4976575;28;20019;-60
2021/05/05 13:14:35;;;;;;;8.27;4.90;;;;;;;;;;4976740;28;20523;-57
2021/05/05 13:26:17;;;;;;;9.38;4.53;;;;;;;;;;4976562;28;20040;-56
2021/05/05 13:34:12;;;;;;;9.25;5.18;;;;;;;;;;4935710;29;20152;-58
2021/05/05 13:36:57;;;;;;;46.88;33.40;;;;;;;;;;4935294;29;20098;-57
2021/05/05 13:39:33;;;;;;;3.72;2.58;;;;;;;;;;4935568;29;20111;-56
2021/05/05 13:42:05;;;;;;;36.95;17.83;;;;;;;;;;4935416;29;20492;-56
2021/05/05 13:44:43;;;;;;;14.05;6.90;;;;;;;;;;4935326;29;20027;-56
2021/05/05 13:49:47;;;;;;;8.30;5.18;;;;;;;;;;4935257;29;20040;-57
2021/05/05 13:52:13;;;;;;;84.70;58.92;;;;;;;;;;4935381;29;20040;-60
2021/05/05 13:54:39;;;;;;;33.90;23.33;;;;;;;;;;4935177;29;20027;-57
2021/05/05 13:57:05;;;;;;;24.80;14.70;;;;;;;;;;4935059;29;20050;-59
2021/05/05 13:59:32;;;;;;;14.90;8.80;;;;;;;;;;4935176;29;20161;-59
2021/05/05 14:01:59;;;;;;;23.33;10.25;;;;;;;;;;4952391;28;20035;-57
2021/05/05 14:04:25;;;;;;;23.85;16.25;;;;;;;;;;4975696;28;20352;-58
2021/05/05 14:06:51;;;;;;;22.15;14.65;;;;;;;;;;4975359;28;20047;-56
2021/05/05 14:09:17;;;;;;;40.03;27.80;;;;;;;;;;4975592;28;20026;-57
2021/05/05 14:11:43;;;;;;;10.00;6.90;;;;;;;;;;4975414;28;20035;-58
2021/05/05 14:14:10;;;;;;;17.80;11.00;;;;;;;;;;4975392;28;20027;-57
2021/05/05 14:16:36;;;;;;;12.00;6.55;;;;;;;;;;4975121;28;20046;-56
2021/05/05 14:19:02;;;;;;;33.03;20.52;;;;;;;;;;4975347;28;20114;-58
2021/05/05 14:21:31;;;;;;;56.17;41.00;;;;;;;;;;4974653;28;20035;-58
2021/05/05 14:23:57;;;;;;;13.43;8.20;;;;;;;;;;4975186;28;20074;-59
2021/05/05 14:26:23;;;;;;;32.53;23.55;;;;;;;;;;4975093;28;20386;-61
2021/05/05 14:28:49;;;;;;;18.63;12.02;;;;;;;;;;4975045;28;20027;-60
2021/05/05 14:31:15;;;;;;;11.80;5.10;;;;;;;;;;4974925;28;20483;-57
2021/05/05 14:33:42;;;;;;;23.65;13.48;;;;;;;;;;4975051;28;20029;-57
2021/05/05 14:36:09;;;;;;;19.90;13.85;;;;;;;;;;4975122;28;20042;-56
2021/05/05 14:38:42;;;;;;;15.02;10.63;;;;;;;;;;4974769;28;20061;-57
2021/05/05 14:41:16;;;;;;;9.93;6.40;;;;;;;;;;4974906;28;20101;-57
2021/05/05 14:48:47;;;;;;;40.28;28.05;;;;;;;;;;4964883;28;20027;-57
2021/05/05 14:51:15;;;;;;;33.38;24.30;;;;;;;;;;4964530;28;20482;-57
2021/05/05 14:53:41;;;;;;;17.55;11.25;;;;;;;;;;4965640;28;20501;-58
2021/05/05 14:56:07;;;;;;;15.20;10.48;;;;;;;;;;4948219;28;20105;-58
2021/05/05 14:58:38;;;;;;;18.05;12.07;;;;;;;;;;4966002;28;20015;-58
2021/05/05 15:01:04;;;;;;;6.47;2.92;;;;;;;;;;4963588;28;20030;-57
2021/05/05 15:03:31;;;;;;;13.63;8.25;;;;;;;;;;4963076;28;20177;-58
2021/05/05 15:06:00;;;;;;;61.72;43.92;;;;;;;;;;4959018;28;20035;-58
2021/05/05 15:08:53;;;;;;;64.07;47.95;;;;;;;;;;4954950;29;20110;-58
2021/05/05 15:14:05;;;;;;;30.00;22.27;;;;;;;;;;4955255;28;20054;-57